Nephi, UT (84648)

10:18 PM MST on February 10, 2016 (GMT -0700)
Ironrod | | Change Station
CLOSE
Current Station
Personal Weather Station
Location: Elk Ridge, UT
Elevation: 5420 ft
Nearby Weather Stations
Active Advisory: Dense Fog Advisory

Elev 5420 ft 40.01 °N, 111.68 °W | Updated 3 minutes ago

Mostly Cloudy
Mostly Cloudy
19.8 °F
Feels Like 20 °F
N
3.0
Wind Variable Wind from South
Gusts 4.0 mph

Today
High -- | Low -- °F
--% Chance of Precip.
Yesterday
High -- | Low -- °F
Precip. -- in
Pressure 30.41 in
Visibility 10.0 miles
Clouds Clear
Windchill 20 °F
Dew Point 11 °F
Humidity 67%
Rainfall 0.00 in
Snow Depth Not available.
7:26 AM 5:57 PM
Waxing Crescent, 9% visible
METAR K36U 110455Z AUTO 00000KT 10SM CLR M10/M12 A3041 RMK AO2
Pressure 30.41 in
Visibility 10.0 miles
Clouds Clear
Windchill 20 °F
Dew Point 11 °F
Humidity 67%
Rainfall 0.00 in
Snow Depth Not available.
7:26 AM 5:57 PM
Waxing Crescent, 9% visible
METAR K36U 110455Z AUTO 00000KT 10SM CLR M10/M12 A3041 RMK AO2

10-Day Weather Forecast

Almanac

Astronomy

Feb. 10, 2016 Rise Set
Actual Time
Civil Twilight
Nautical Twilight
Astronomical Twilight
Moon
Length of Visible Light
Length of Day
Tomorrow will be .
, % of the Moon is Illuminated

Today's Extremes

State Highs State Lows

Community

WunderPhotos

Upload Photos

1,892,023 photos uploaded!

WunderBlog® & News

Nearby

Air Quality

  Air Quality AQ Index Pollutant
Not available.

Snow Depth

Station Depth Elevation

Earthquake Activity

City Distance Mag. Time & Date
Minimum magnitude displayed is 2.5.

Coastal Water Temperatures

Place Temperature

Stations

Nearby Weather Stations

Station Location Temp. Windchill Dew Point Humidity Wind Precip. Elev Updated Type
                   

Watches & Warnings

Dense Fog Advisory
Issued: 9:55 PM MST Feb. 10, 2016 – National Weather Service

... Dense fog advisory in effect until 8 am MST Thursday...

The National Weather Service in Salt Lake City has issued a dense
fog advisory... which is in effect until 8 am MST Thursday.

* Affected area... the Cache Valley... the southern Wasatch front
and west central Utah.

* Visibilities... below one quarter mile at times.

* Timing... dense fog will continue to develop through the evening
and into the overnight hours. The fog will gradually dissipate
Thursday morning.

* Impacts... dense fog will cause frequent reductions in
visibility. If traveling... prepare for rapid changes in
visibility.

Precautionary/preparedness actions...

A dense fog advisory means visibilities will frequently be
reduced to less than one quarter mile. If driving... slow down...
use your low beam headlights... and leave plenty of distance ahead
of you.



For more information from NOAA/National Weather Service visit...
http://weather.Gov/saltlakecity (all lower case)